sensor_id;sensor_type;location;lat;lon;timestamp;P1;durP1;ratioP1;P2;durP2;ratioP2
53281;SDS011;39167;52.794;6.892;2023-04-25T00:00:12;18.65;;;5.20;;
53281;SDS011;39167;52.794;6.892;2023-04-25T00:02:38;18.75;;;4.22;;
53281;SDS011;39167;52.794;6.892;2023-04-25T00:05:03;22.35;;;4.97;;
53281;SDS011;39167;52.794;6.892;2023-04-25T00:07:30;22.15;;;4.82;;
53281;SDS011;39167;52.794;6.892;2023-04-25T00:09:56;26.90;;;4.43;;
53281;SDS011;39167;52.794;6.892;2023-04-25T00:12:22;18.95;;;4.50;;
53281;SDS011;39167;52.794;6.892;2023-04-25T00:14:48;18.85;;;4.40;;
53281;SDS011;39167;52.794;6.892;2023-04-25T00:17:15;24.10;;;4.50;;
53281;SDS011;39167;52.794;6.892;2023-04-25T00:19:44;17.27;;;4.00;;
53281;SDS011;39167;52.794;6.892;2023-04-25T00:22:13;21.30;;;4.70;;
53281;SDS011;39167;52.794;6.892;2023-04-25T00:24:39;18.52;;;4.53;;
53281;SDS011;39167;52.794;6.892;2023-04-25T00:27:05;23.38;;;4.55;;
53281;SDS011;39167;52.794;6.892;2023-04-25T00:29:31;19.15;;;4.75;;
53281;SDS011;39167;52.794;6.892;2023-04-25T00:31:56;18.20;;;4.13;;
53281;SDS011;39167;52.794;6.892;2023-04-25T00:34:22;21.42;;;4.28;;
53281;SDS011;39167;52.794;6.892;2023-04-25T00:36:48;19.60;;;4.72;;
53281;SDS011;39167;52.794;6.892;2023-04-25T00:39:13;18.27;;;4.05;;
53281;SDS011;39167;52.794;6.892;2023-04-25T00:41:39;18.40;;;3.97;;
53281;SDS011;39167;52.794;6.892;2023-04-25T00:44:05;22.02;;;4.85;;
53281;SDS011;39167;52.794;6.892;2023-04-25T00:46:36;16.08;;;4.13;;
53281;SDS011;39167;52.794;6.892;2023-04-25T00:49:03;17.75;;;4.47;;
53281;SDS011;39167;52.794;6.892;2023-04-25T00:51:29;22.20;;;4.32;;
53281;SDS011;39167;52.794;6.892;2023-04-25T00:53:57;20.90;;;3.92;;
53281;SDS011;39167;52.794;6.892;2023-04-25T00:56:24;17.08;;;4.53;;
53281;SDS011;39167;52.794;6.892;2023-04-25T00:58:50;18.38;;;4.35;;
53281;SDS011;39167;52.794;6.892;2023-04-25T01:01:21;21.90;;;4.35;;
53281;SDS011;39167;52.794;6.892;2023-04-25T01:03:47;18.65;;;4.20;;
53281;SDS011;39167;52.794;6.892;2023-04-25T01:06:15;17.33;;;3.63;;
53281;SDS011;39167;52.794;6.892;2023-04-25T01:08:41;13.75;;;3.78;;
53281;SDS011;39167;52.794;6.892;2023-04-25T01:11:07;20.50;;;4.22;;
53281;SDS011;39167;52.794;6.892;2023-04-25T01:13:34;21.98;;;4.88;;
53281;SDS011;39167;52.794;6.892;2023-04-25T01:16:00;16.85;;;4.85;;
53281;SDS011;39167;52.794;6.892;2023-04-25T01:18:27;23.02;;;5.28;;
53281;SDS011;39167;52.794;6.892;2023-04-25T01:20:53;19.55;;;4.90;;
53281;SDS011;39167;52.794;6.892;2023-04-25T01:23:20;15.52;;;3.55;;
53281;SDS011;39167;52.794;6.892;2023-04-25T01:25:46;12.95;;;3.47;;
53281;SDS011;39167;52.794;6.892;2023-04-25T01:28:13;13.13;;;4.32;;
53281;SDS011;39167;52.794;6.892;2023-04-25T01:30:39;14.13;;;3.95;;
53281;SDS011;39167;52.794;6.892;2023-04-25T01:33:06;15.98;;;3.40;;
53281;SDS011;39167;52.794;6.892;2023-04-25T01:35:33;15.88;;;3.35;;
53281;SDS011;39167;52.794;6.892;2023-04-25T01:38:00;17.42;;;3.97;;
53281;SDS011;39167;52.794;6.892;2023-04-25T01:40:25;15.25;;;3.88;;
53281;SDS011;39167;52.794;6.892;2023-04-25T01:42:52;17.40;;;4.18;;
53281;SDS011;39167;52.794;6.892;2023-04-25T01:45:18;12.90;;;4.03;;
53281;SDS011;39167;52.794;6.892;2023-04-25T01:47:44;16.40;;;4.45;;
53281;SDS011;39167;52.794;6.892;2023-04-25T01:50:14;17.30;;;4.65;;
53281;SDS011;39167;52.794;6.892;2023-04-25T01:52:40;15.30;;;3.60;;
53281;SDS011;39167;52.794;6.892;2023-04-25T01:55:06;15.85;;;3.78;;
53281;SDS011;39167;52.794;6.892;2023-04-25T01:57:31;15.80;;;3.70;;
53281;SDS011;39167;52.794;6.892;2023-04-25T01:59:58;16.55;;;4.05;;
53281;SDS011;39167;52.794;6.892;2023-04-25T02:02:26;18.70;;;3.85;;
53281;SDS011;39167;52.794;6.892;2023-04-25T02:04:52;19.60;;;4.25;;
53281;SDS011;39167;52.794;6.892;2023-04-25T02:07:19;18.45;;;4.15;;
53281;SDS011;39167;52.794;6.892;2023-04-25T02:09:45;23.15;;;4.43;;
53281;SDS011;39167;52.794;6.892;2023-04-25T02:12:11;15.82;;;3.65;;
53281;SDS011;39167;52.794;6.892;2023-04-25T02:14:37;19.48;;;3.80;;
53281;SDS011;39167;52.794;6.892;2023-04-25T02:17:03;16.02;;;3.85;;
53281;SDS011;39167;52.794;6.892;2023-04-25T02:19:28;18.02;;;3.78;;
53281;SDS011;39167;52.794;6.892;2023-04-25T02:21:54;10.88;;;3.60;;
53281;SDS011;39167;52.794;6.892;2023-04-25T02:24:22;20.25;;;4.38;;
53281;SDS011;39167;52.794;6.892;2023-04-25T02:26:47;18.15;;;4.38;;
53281;SDS011;39167;52.794;6.892;2023-04-25T02:29:14;15.27;;;4.18;;
53281;SDS011;39167;52.794;6.892;2023-04-25T02:31:41;18.85;;;4.05;;
53281;SDS011;39167;52.794;6.892;2023-04-25T02:34:06;14.55;;;3.75;;
53281;SDS011;39167;52.794;6.892;2023-04-25T02:36:34;14.32;;;4.75;;
53281;SDS011;39167;52.794;6.892;2023-04-25T02:39:00;14.98;;;3.45;;
53281;SDS011;39167;52.794;6.892;2023-04-25T02:41:27;18.67;;;3.75;;
53281;SDS011;39167;52.794;6.892;2023-04-25T02:43:53;12.15;;;3.80;;
53281;SDS011;39167;52.794;6.892;2023-04-25T02:46:20;20.40;;;4.03;;
53281;SDS011;39167;52.794;6.892;2023-04-25T02:48:46;18.42;;;4.40;;
53281;SDS011;39167;52.794;6.892;2023-04-25T02:51:11;17.25;;;4.75;;
53281;SDS011;39167;52.794;6.892;2023-04-25T02:53:37;14.45;;;3.95;;
53281;SDS011;39167;52.794;6.892;2023-04-25T02:56:03;18.23;;;4.13;;
53281;SDS011;39167;52.794;6.892;2023-04-25T02:58:29;17.50;;;4.10;;
53281;SDS011;39167;52.794;6.892;2023-04-25T03:00:55;19.80;;;4.32;;
53281;SDS011;39167;52.794;6.892;2023-04-25T03:03:20;14.25;;;3.80;;
53281;SDS011;39167;52.794;6.892;2023-04-25T03:05:52;22.10;;;4.40;;
53281;SDS011;39167;52.794;6.892;2023-04-25T03:08:17;15.15;;;3.42;;
53281;SDS011;39167;52.794;6.892;2023-04-25T03:10:44;13.30;;;3.80;;
53281;SDS011;39167;52.794;6.892;2023-04-25T03:13:10;10.77;;;3.50;;
53281;SDS011;39167;52.794;6.892;2023-04-25T03:15:36;18.25;;;4.50;;
53281;SDS011;39167;52.794;6.892;2023-04-25T03:18:02;18.27;;;4.10;;
53281;SDS011;39167;52.794;6.892;2023-04-25T03:20:28;18.58;;;4.45;;
53281;SDS011;39167;52.794;6.892;2023-04-25T03:22:53;20.48;;;4.30;;
53281;SDS011;39167;52.794;6.892;2023-04-25T03:25:19;21.05;;;4.40;;
53281;SDS011;39167;52.794;6.892;2023-04-25T03:27:46;18.98;;;3.72;;
53281;SDS011;39167;52.794;6.892;2023-04-25T03:30:11;18.02;;;3.70;;
53281;SDS011;39167;52.794;6.892;2023-04-25T03:32:37;14.65;;;3.28;;
53281;SDS011;39167;52.794;6.892;2023-04-25T03:35:03;11.45;;;3.70;;
53281;SDS011;39167;52.794;6.892;2023-04-25T03:37:30;14.75;;;3.72;;
53281;SDS011;39167;52.794;6.892;2023-04-25T03:39:56;18.15;;;4.03;;
53281;SDS011;39167;52.794;6.892;2023-04-25T03:42:21;20.23;;;3.38;;
53281;SDS011;39167;52.794;6.892;2023-04-25T03:44:48;15.95;;;3.83;;
53281;SDS011;39167;52.794;6.892;2023-04-25T03:47:14;13.07;;;3.30;;
53281;SDS011;39167;52.794;6.892;2023-04-25T03:49:41;21.05;;;4.22;;
53281;SDS011;39167;52.794;6.892;2023-04-25T03:52:06;13.88;;;3.35;;
53281;SDS011;39167;52.794;6.892;2023-04-25T03:54:32;14.98;;;3.28;;
53281;SDS011;39167;52.794;6.892;2023-04-25T03:56:58;13.57;;;2.63;;
53281;SDS011;39167;52.794;6.892;2023-04-25T03:59:24;12.32;;;3.42;;
53281;SDS011;39167;52.794;6.892;2023-04-25T04:01:51;17.42;;;3.60;;
53281;SDS011;39167;52.794;6.892;2023-04-25T04:04:17;12.00;;;3.17;;
53281;SDS011;39167;52.794;6.892;2023-04-25T04:06:43;12.35;;;3.42;;
53281;SDS011;39167;52.794;6.892;2023-04-25T04:09:09;16.55;;;3.17;;
53281;SDS011;39167;52.794;6.892;2023-04-25T04:11:37;15.43;;;3.15;;
53281;SDS011;39167;52.794;6.892;2023-04-25T04:14:04;15.73;;;4.05;;
53281;SDS011;39167;52.794;6.892;2023-04-25T04:16:31;13.50;;;2.83;;
53281;SDS011;39167;52.794;6.892;2023-04-25T04:18:57;17.00;;;2.88;;
53281;SDS011;39167;52.794;6.892;2023-04-25T04:21:22;16.88;;;3.15;;
53281;SDS011;39167;52.794;6.892;2023-04-25T04:23:48;20.48;;;2.90;;
53281;SDS011;39167;52.794;6.892;2023-04-25T04:26:14;11.55;;;2.60;;
53281;SDS011;39167;52.794;6.892;2023-04-25T04:28:43;12.48;;;3.15;;
53281;SDS011;39167;52.794;6.892;2023-04-25T04:31:10;16.15;;;3.05;;
53281;SDS011;39167;52.794;6.892;2023-04-25T04:33:36;11.13;;;2.88;;
53281;SDS011;39167;52.794;6.892;2023-04-25T04:36:02;17.30;;;3.05;;
53281;SDS011;39167;52.794;6.892;2023-04-25T04:38:29;7.47;;;1.92;;
53281;SDS011;39167;52.794;6.892;2023-04-25T04:40:55;11.07;;;2.80;;
53281;SDS011;39167;52.794;6.892;2023-04-25T04:43:21;8.38;;;2.20;;
53281;SDS011;39167;52.794;6.892;2023-04-25T04:45:48;8.57;;;1.80;;
53281;SDS011;39167;52.794;6.892;2023-04-25T04:48:15;8.90;;;2.30;;
53281;SDS011;39167;52.794;6.892;2023-04-25T04:50:44;11.15;;;2.28;;
53281;SDS011;39167;52.794;6.892;2023-04-25T04:53:10;9.40;;;1.75;;
53281;SDS011;39167;52.794;6.892;2023-04-25T04:55:37;5.65;;;1.80;;
53281;SDS011;39167;52.794;6.892;2023-04-25T04:58:02;4.82;;;1.38;;
53281;SDS011;39167;52.794;6.892;2023-04-25T05:00:28;8.95;;;1.63;;
53281;SDS011;39167;52.794;6.892;2023-04-25T05:02:54;8.60;;;1.95;;
53281;SDS011;39167;52.794;6.892;2023-04-25T05:05:21;9.82;;;1.92;;
53281;SDS011;39167;52.794;6.892;2023-04-25T05:07:46;10.95;;;2.00;;
53281;SDS011;39167;52.794;6.892;2023-04-25T05:10:12;7.40;;;1.88;;
53281;SDS011;39167;52.794;6.892;2023-04-25T05:12:38;9.48;;;2.38;;
53281;SDS011;39167;52.794;6.892;2023-04-25T05:15:04;8.50;;;1.88;;
53281;SDS011;39167;52.794;6.892;2023-04-25T05:17:30;12.25;;;2.13;;
53281;SDS011;39167;52.794;6.892;2023-04-25T05:19:56;5.95;;;1.70;;
53281;SDS011;39167;52.794;6.892;2023-04-25T05:22:22;10.30;;;1.83;;
53281;SDS011;39167;52.794;6.892;2023-04-25T05:24:48;10.75;;;1.90;;
53281;SDS011;39167;52.794;6.892;2023-04-25T05:27:15;6.90;;;1.42;;
53281;SDS011;39167;52.794;6.892;2023-04-25T05:29:45;9.63;;;1.77;;
53281;SDS011;39167;52.794;6.892;2023-04-25T05:32:10;5.28;;;1.73;;
53281;SDS011;39167;52.794;6.892;2023-04-25T05:34:36;11.93;;;2.17;;
53281;SDS011;39167;52.794;6.892;2023-04-25T05:37:02;7.75;;;1.75;;
53281;SDS011;39167;52.794;6.892;2023-04-25T05:39:28;8.65;;;1.80;;
53281;SDS011;39167;52.794;6.892;2023-04-25T05:41:54;5.35;;;1.55;;
53281;SDS011;39167;52.794;6.892;2023-04-25T05:44:20;14.73;;;2.42;;
53281;SDS011;39167;52.794;6.892;2023-04-25T05:46:46;8.20;;;2.05;;
53281;SDS011;39167;52.794;6.892;2023-04-25T05:49:12;8.15;;;2.17;;
53281;SDS011;39167;52.794;6.892;2023-04-25T05:51:38;10.48;;;2.05;;
53281;SDS011;39167;52.794;6.892;2023-04-25T05:54:07;7.85;;;1.98;;
53281;SDS011;39167;52.794;6.892;2023-04-25T05:56:32;9.02;;;1.77;;
53281;SDS011;39167;52.794;6.892;2023-04-25T05:58:58;7.10;;;1.55;;
53281;SDS011;39167;52.794;6.892;2023-04-25T06:01:24;13.93;;;2.28;;
53281;SDS011;39167;52.794;6.892;2023-04-25T06:03:49;10.15;;;1.92;;
53281;SDS011;39167;52.794;6.892;2023-04-25T06:06:17;8.52;;;2.20;;
53281;SDS011;39167;52.794;6.892;2023-04-25T06:08:43;6.65;;;1.65;;
53281;SDS011;39167;52.794;6.892;2023-04-25T06:11:09;7.70;;;1.77;;
53281;SDS011;39167;52.794;6.892;2023-04-25T06:13:35;10.60;;;1.80;;
53281;SDS011;39167;52.794;6.892;2023-04-25T06:16:03;10.35;;;2.40;;
53281;SDS011;39167;52.794;6.892;2023-04-25T06:18:29;13.20;;;2.40;;
53281;SDS011;39167;52.794;6.892;2023-04-25T06:20:55;8.82;;;2.85;;
53281;SDS011;39167;52.794;6.892;2023-04-25T06:23:21;7.22;;;2.03;;
53281;SDS011;39167;52.794;6.892;2023-04-25T06:25:47;14.65;;;2.60;;
53281;SDS011;39167;52.794;6.892;2023-04-25T06:28:15;7.68;;;1.98;;
53281;SDS011;39167;52.794;6.892;2023-04-25T06:30:41;18.05;;;2.28;;
53281;SDS011;39167;52.794;6.892;2023-04-25T06:33:09;9.85;;;2.58;;
53281;SDS011;39167;52.794;6.892;2023-04-25T06:35:38;13.68;;;2.47;;
53281;SDS011;39167;52.794;6.892;2023-04-25T06:38:03;10.77;;;2.45;;
53281;SDS011;39167;52.794;6.892;2023-04-25T06:40:43;11.43;;;2.17;;
53281;SDS011;39167;52.794;6.892;2023-04-25T06:43:08;12.52;;;2.53;;
53281;SDS011;39167;52.794;6.892;2023-04-25T06:45:34;11.05;;;2.28;;
53281;SDS011;39167;52.794;6.892;2023-04-25T06:48:00;12.93;;;2.08;;
53281;SDS011;39167;52.794;6.892;2023-04-25T06:50:26;11.70;;;2.50;;
53281;SDS011;39167;52.794;6.892;2023-04-25T06:52:52;14.68;;;2.50;;
53281;SDS011;39167;52.794;6.892;2023-04-25T06:55:17;12.38;;;2.20;;
53281;SDS011;39167;52.794;6.892;2023-04-25T06:57:43;10.25;;;2.45;;
53281;SDS011;39167;52.794;6.892;2023-04-25T07:00:09;12.50;;;2.35;;
53281;SDS011;39167;52.794;6.892;2023-04-25T07:02:35;14.18;;;2.58;;
53281;SDS011;39167;52.794;6.892;2023-04-25T07:05:02;11.10;;;2.13;;
53281;SDS011;39167;52.794;6.892;2023-04-25T07:07:29;15.05;;;2.60;;
53281;SDS011;39167;52.794;6.892;2023-04-25T07:09:55;15.95;;;2.50;;
53281;SDS011;39167;52.794;6.892;2023-04-25T07:12:21;15.32;;;2.25;;
53281;SDS011;39167;52.794;6.892;2023-04-25T07:14:47;10.35;;;2.25;;
53281;SDS011;39167;52.794;6.892;2023-04-25T07:17:13;12.05;;;2.10;;
53281;SDS011;39167;52.794;6.892;2023-04-25T07:19:38;8.02;;;2.20;;
53281;SDS011;39167;52.794;6.892;2023-04-25T07:22:05;19.88;;;2.60;;
53281;SDS011;39167;52.794;6.892;2023-04-25T07:24:31;8.55;;;2.13;;
53281;SDS011;39167;52.794;6.892;2023-04-25T07:26:57;10.10;;;2.42;;
53281;SDS011;39167;52.794;6.892;2023-04-25T07:29:23;12.20;;;2.08;;
53281;SDS011;39167;52.794;6.892;2023-04-25T07:31:49;14.18;;;2.22;;
53281;SDS011;39167;52.794;6.892;2023-04-25T07:34:15;11.63;;;2.30;;
53281;SDS011;39167;52.794;6.892;2023-04-25T07:36:41;7.53;;;1.77;;
53281;SDS011;39167;52.794;6.892;2023-04-25T07:39:12;9.18;;;2.30;;
53281;SDS011;39167;52.794;6.892;2023-04-25T07:41:37;8.98;;;1.60;;
53281;SDS011;39167;52.794;6.892;2023-04-25T07:44:03;7.15;;;1.88;;
53281;SDS011;39167;52.794;6.892;2023-04-25T07:46:29;9.98;;;1.55;;
53281;SDS011;39167;52.794;6.892;2023-04-25T07:48:55;9.32;;;2.08;;
53281;SDS011;39167;52.794;6.892;2023-04-25T07:51:20;6.65;;;1.48;;
53281;SDS011;39167;52.794;6.892;2023-04-25T07:53:47;5.50;;;1.80;;
53281;SDS011;39167;52.794;6.892;2023-04-25T07:56:16;7.40;;;1.73;;
53281;SDS011;39167;52.794;6.892;2023-04-25T07:58:42;11.65;;;1.85;;
53281;SDS011;39167;52.794;6.892;2023-04-25T08:01:07;8.40;;;1.65;;
53281;SDS011;39167;52.794;6.892;2023-04-25T08:03:33;6.97;;;1.70;;
53281;SDS011;39167;52.794;6.892;2023-04-25T08:05:59;8.80;;;2.22;;
53281;SDS011;39167;52.794;6.892;2023-04-25T08:08:25;9.07;;;2.10;;
53281;SDS011;39167;52.794;6.892;2023-04-25T08:10:50;12.15;;;2.00;;
53281;SDS011;39167;52.794;6.892;2023-04-25T08:13:16;10.70;;;2.38;;
53281;SDS011;39167;52.794;6.892;2023-04-25T08:15:42;6.95;;;1.48;;
53281;SDS011;39167;52.794;6.892;2023-04-25T08:18:07;5.65;;;1.75;;
53281;SDS011;39167;52.794;6.892;2023-04-25T08:20:33;7.40;;;1.85;;
53281;SDS011;39167;52.794;6.892;2023-04-25T08:22:59;5.40;;;1.35;;
53281;SDS011;39167;52.794;6.892;2023-04-25T08:25:25;7.53;;;1.55;;
53281;SDS011;39167;52.794;6.892;2023-04-25T08:27:51;13.90;;;2.28;;
53281;SDS011;39167;52.794;6.892;2023-04-25T08:30:16;12.48;;;1.90;;
53281;SDS011;39167;52.794;6.892;2023-04-25T08:32:42;12.57;;;1.55;;
53281;SDS011;39167;52.794;6.892;2023-04-25T08:35:08;7.75;;;1.40;;
53281;SDS011;39167;52.794;6.892;2023-04-25T08:37:34;4.78;;;1.27;;
53281;SDS011;39167;52.794;6.892;2023-04-25T08:40:01;3.17;;;1.02;;
53281;SDS011;39167;52.794;6.892;2023-04-25T08:42:32;6.47;;;1.30;;
53281;SDS011;39167;52.794;6.892;2023-04-25T08:44:59;8.32;;;1.40;;
53281;SDS011;39167;52.794;6.892;2023-04-25T08:47:26;8.02;;;1.40;;
53281;SDS011;39167;52.794;6.892;2023-04-25T08:49:54;6.82;;;1.20;;
53281;SDS011;39167;52.794;6.892;2023-04-25T08:52:24;6.32;;;1.35;;
53281;SDS011;39167;52.794;6.892;2023-04-25T08:54:55;4.00;;;1.13;;
53281;SDS011;39167;52.794;6.892;2023-04-25T08:57:22;6.50;;;1.27;;
53281;SDS011;39167;52.794;6.892;2023-04-25T08:59:49;6.07;;;1.30;;
53281;SDS011;39167;52.794;6.892;2023-04-25T09:02:16;4.00;;;1.25;;
53281;SDS011;39167;52.794;6.892;2023-04-25T09:04:44;4.90;;;1.00;;
53281;SDS011;39167;52.794;6.892;2023-04-25T09:07:10;4.93;;;1.25;;
53281;SDS011;39167;52.794;6.892;2023-04-25T09:09:36;10.48;;;1.55;;
53281;SDS011;39167;52.794;6.892;2023-04-25T09:12:02;9.40;;;1.27;;
53281;SDS011;39167;52.794;6.892;2023-04-25T09:14:28;6.28;;;1.30;;
53281;SDS011;39167;52.794;6.892;2023-04-25T09:19:34;7.78;;;1.50;;
53281;SDS011;39167;52.794;6.892;2023-04-25T09:22:01;3.95;;;1.20;;
53281;SDS011;39167;52.794;6.892;2023-04-25T09:24:39;8.70;;;1.50;;
53281;SDS011;39167;52.794;6.892;2023-04-25T09:27:08;7.15;;;1.40;;
53281;SDS011;39167;52.794;6.892;2023-04-25T09:29:39;5.53;;;1.27;;
53281;SDS011;39167;52.794;6.892;2023-04-25T09:34:44;6.90;;;1.35;;
53281;SDS011;39167;52.794;6.892;2023-04-25T09:37:19;4.20;;;1.20;;
53281;SDS011;39167;52.794;6.892;2023-04-25T09:39:53;4.90;;;1.13;;
53281;SDS011;39167;52.794;6.892;2023-04-25T09:42:24;12.55;;;1.17;;
53281;SDS011;39167;52.794;6.892;2023-04-25T09:44:53;6.43;;;1.13;;
53281;SDS011;39167;52.794;6.892;2023-04-25T09:47:20;7.97;;;1.13;;
53281;SDS011;39167;52.794;6.892;2023-04-25T09:49:48;7.63;;;1.05;;
53281;SDS011;39167;52.794;6.892;2023-04-25T09:52:16;4.35;;;0.93;;
53281;SDS011;39167;52.794;6.892;2023-04-25T09:54:44;2.30;;;0.85;;
53281;SDS011;39167;52.794;6.892;2023-04-25T09:57:11;3.85;;;0.85;;
53281;SDS011;39167;52.794;6.892;2023-04-25T09:59:46;5.18;;;1.13;;
53281;SDS011;39167;52.794;6.892;2023-04-25T10:02:17;5.88;;;1.00;;
53281;SDS011;39167;52.794;6.892;2023-04-25T10:04:49;4.15;;;1.45;;
53281;SDS011;39167;52.794;6.892;2023-04-25T10:07:18;5.68;;;1.00;;
53281;SDS011;39167;52.794;6.892;2023-04-25T10:09:47;6.15;;;1.38;;
53281;SDS011;39167;52.794;6.892;2023-04-25T10:12:17;3.03;;;0.60;;
53281;SDS011;39167;52.794;6.892;2023-04-25T10:14:43;7.43;;;1.10;;
53281;SDS011;39167;52.794;6.892;2023-04-25T10:17:10;5.15;;;1.00;;
53281;SDS011;39167;52.794;6.892;2023-04-25T10:19:36;11.48;;;0.93;;
53281;SDS011;39167;52.794;6.892;2023-04-25T10:25:01;5.22;;;1.00;;
53281;SDS011;39167;52.794;6.892;2023-04-25T10:27:30;7.88;;;1.27;;
53281;SDS011;39167;52.794;6.892;2023-04-25T10:30:03;9.93;;;1.45;;
53281;SDS011;39167;52.794;6.892;2023-04-25T10:32:37;6.77;;;1.50;;
53281;SDS011;39167;52.794;6.892;2023-04-25T10:35:13;6.93;;;1.48;;
53281;SDS011;39167;52.794;6.892;2023-04-25T10:37:56;10.23;;;1.50;;
53281;SDS011;39167;52.794;6.892;2023-04-25T10:40:23;4.18;;;1.10;;
53281;SDS011;39167;52.794;6.892;2023-04-25T10:42:51;6.72;;;1.15;;
53281;SDS011;39167;52.794;6.892;2023-04-25T10:45:18;3.70;;;1.00;;
53281;SDS011;39167;52.794;6.892;2023-04-25T10:47:45;4.72;;;1.17;;
53281;SDS011;39167;52.794;6.892;2023-04-25T10:50:11;4.47;;;1.05;;
53281;SDS011;39167;52.794;6.892;2023-04-25T10:52:41;3.80;;;1.00;;
53281;SDS011;39167;52.794;6.892;2023-04-25T10:55:07;7.65;;;1.15;;
53281;SDS011;39167;52.794;6.892;2023-04-25T10:57:43;5.03;;;1.00;;
53281;SDS011;39167;52.794;6.892;2023-04-25T11:00:18;4.30;;;1.48;;
53281;SDS011;39167;52.794;6.892;2023-04-25T11:02:55;4.35;;;1.42;;
53281;SDS011;39167;52.794;6.892;2023-04-25T11:07:58;6.95;;;1.70;;
53281;SDS011;39167;52.794;6.892;2023-04-25T11:10:25;7.75;;;1.60;;
53281;SDS011;39167;52.794;6.892;2023-04-25T11:12:58;8.65;;;1.65;;
53281;SDS011;39167;52.794;6.892;2023-04-25T11:15:25;8.88;;;1.60;;
53281;SDS011;39167;52.794;6.892;2023-04-25T11:17:51;10.23;;;1.58;;
53281;SDS011;39167;52.794;6.892;2023-04-25T11:20:17;7.72;;;1.40;;
53281;SDS011;39167;52.794;6.892;2023-04-25T11:22:44;6.85;;;1.60;;
53281;SDS011;39167;52.794;6.892;2023-04-25T11:25:11;7.95;;;1.45;;
53281;SDS011;39167;52.794;6.892;2023-04-25T11:27:39;7.18;;;1.52;;
53281;SDS011;39167;52.794;6.892;2023-04-25T11:30:17;7.22;;;1.20;;
53281;SDS011;39167;52.794;6.892;2023-04-25T11:32:44;7.60;;;1.48;;
53281;SDS011;39167;52.794;6.892;2023-04-25T11:35:10;6.45;;;1.60;;
53281;SDS011;39167;52.794;6.892;2023-04-25T11:37:38;6.82;;;1.65;;
53281;SDS011;39167;52.794;6.892;2023-04-25T11:42:43;8.05;;;1.45;;
53281;SDS011;39167;52.794;6.892;2023-04-25T11:45:10;8.07;;;1.40;;
53281;SDS011;39167;52.794;6.892;2023-04-25T11:47:36;6.72;;;1.50;;
53281;SDS011;39167;52.794;6.892;2023-04-25T11:50:03;7.70;;;1.10;;
53281;SDS011;39167;52.794;6.892;2023-04-25T11:55:12;4.20;;;1.55;;
53281;SDS011;39167;52.794;6.892;2023-04-25T11:57:43;5.25;;;1.30;;
53281;SDS011;39167;52.794;6.892;2023-04-25T12:02:44;5.18;;;1.58;;
53281;SDS011;39167;52.794;6.892;2023-04-25T12:05:18;7.70;;;1.48;;
53281;SDS011;39167;52.794;6.892;2023-04-25T12:07:45;3.42;;;1.02;;
53281;SDS011;39167;52.794;6.892;2023-04-25T12:10:12;8.65;;;1.33;;
53281;SDS011;39167;52.794;6.892;2023-04-25T12:12:43;5.93;;;1.52;;
53281;SDS011;39167;52.794;6.892;2023-04-25T12:17:50;6.88;;;1.30;;
53281;SDS011;39167;52.794;6.892;2023-04-25T12:20:20;10.83;;;1.60;;
53281;SDS011;39167;52.794;6.892;2023-04-25T12:22:49;9.60;;;1.67;;
53281;SDS011;39167;52.794;6.892;2023-04-25T12:30:55;5.45;;;1.48;;
53281;SDS011;39167;52.794;6.892;2023-04-25T12:33:23;7.38;;;1.42;;
53281;SDS011;39167;52.794;6.892;2023-04-25T12:35:49;7.93;;;1.63;;
53281;SDS011;39167;52.794;6.892;2023-04-25T12:38:26;9.77;;;1.52;;
53281;SDS011;39167;52.794;6.892;2023-04-25T12:40:55;6.70;;;1.50;;
53281;SDS011;39167;52.794;6.892;2023-04-25T12:43:22;7.30;;;1.60;;
53281;SDS011;39167;52.794;6.892;2023-04-25T12:45:51;7.57;;;1.52;;
53281;SDS011;39167;52.794;6.892;2023-04-25T12:48:18;5.80;;;1.58;;
53281;SDS011;39167;52.794;6.892;2023-04-25T12:50:44;6.35;;;1.80;;
53281;SDS011;39167;52.794;6.892;2023-04-25T12:53:14;10.73;;;1.95;;
53281;SDS011;39167;52.794;6.892;2023-04-25T12:55:40;8.30;;;1.60;;
53281;SDS011;39167;52.794;6.892;2023-04-25T12:58:06;8.15;;;1.42;;
53281;SDS011;39167;52.794;6.892;2023-04-25T13:00:32;6.90;;;1.80;;
53281;SDS011;39167;52.794;6.892;2023-04-25T13:02:58;6.78;;;1.75;;
53281;SDS011;39167;52.794;6.892;2023-04-25T13:05:24;4.13;;;1.30;;
53281;SDS011;39167;52.794;6.892;2023-04-25T13:07:50;6.93;;;1.60;;
53281;SDS011;39167;52.794;6.892;2023-04-25T13:10:16;10.23;;;2.05;;
53281;SDS011;39167;52.794;6.892;2023-04-25T13:12:43;9.90;;;1.80;;
53281;SDS011;39167;52.794;6.892;2023-04-25T13:15:09;9.63;;;1.65;;
53281;SDS011;39167;52.794;6.892;2023-04-25T13:17:36;8.40;;;1.70;;
53281;SDS011;39167;52.794;6.892;2023-04-25T13:20:04;12.45;;;1.60;;
53281;SDS011;39167;52.794;6.892;2023-04-25T13:22:33;2.58;;;0.98;;
53281;SDS011;39167;52.794;6.892;2023-04-25T13:25:02;6.53;;;1.30;;
53281;SDS011;39167;52.794;6.892;2023-04-25T13:27:28;29.70;;;5.13;;
53281;SDS011;39167;52.794;6.892;2023-04-25T13:29:54;9.48;;;1.50;;
53281;SDS011;39167;52.794;6.892;2023-04-25T13:32:19;4.10;;;1.55;;
53281;SDS011;39167;52.794;6.892;2023-04-25T13:34:45;4.97;;;1.45;;
53281;SDS011;39167;52.794;6.892;2023-04-25T13:37:11;7.38;;;1.23;;
53281;SDS011;39167;52.794;6.892;2023-04-25T13:39:36;7.38;;;1.55;;
53281;SDS011;39167;52.794;6.892;2023-04-25T13:42:02;9.52;;;1.73;;
53281;SDS011;39167;52.794;6.892;2023-04-25T13:44:28;7.53;;;1.65;;
53281;SDS011;39167;52.794;6.892;2023-04-25T13:46:54;8.52;;;1.77;;
53281;SDS011;39167;52.794;6.892;2023-04-25T13:49:19;6.15;;;1.40;;
53281;SDS011;39167;52.794;6.892;2023-04-25T13:51:45;7.53;;;2.08;;
53281;SDS011;39167;52.794;6.892;2023-04-25T13:54:11;5.40;;;1.30;;
53281;SDS011;39167;52.794;6.892;2023-04-25T13:56:36;6.60;;;1.20;;
53281;SDS011;39167;52.794;6.892;2023-04-25T13:59:02;5.07;;;1.30;;
53281;SDS011;39167;52.794;6.892;2023-04-25T14:01:28;4.68;;;1.30;;
53281;SDS011;39167;52.794;6.892;2023-04-25T14:03:56;7.57;;;1.60;;
53281;SDS011;39167;52.794;6.892;2023-04-25T14:06:22;7.85;;;1.50;;
53281;SDS011;39167;52.794;6.892;2023-04-25T14:08:49;7.50;;;1.30;;
53281;SDS011;39167;52.794;6.892;2023-04-25T14:11:15;5.82;;;1.15;;
53281;SDS011;39167;52.794;6.892;2023-04-25T14:13:43;4.75;;;1.10;;
53281;SDS011;39167;52.794;6.892;2023-04-25T14:16:09;6.35;;;1.23;;
53281;SDS011;39167;52.794;6.892;2023-04-25T14:18:35;3.95;;;1.13;;
53281;SDS011;39167;52.794;6.892;2023-04-25T14:21:01;4.68;;;1.20;;
53281;SDS011;39167;52.794;6.892;2023-04-25T14:23:26;5.28;;;1.00;;
53281;SDS011;39167;52.794;6.892;2023-04-25T14:25:52;6.20;;;1.55;;
53281;SDS011;39167;52.794;6.892;2023-04-25T14:28:18;5.47;;;1.13;;
53281;SDS011;39167;52.794;6.892;2023-04-25T14:30:44;4.25;;;1.08;;
53281;SDS011;39167;52.794;6.892;2023-04-25T14:33:10;4.88;;;1.20;;
53281;SDS011;39167;52.794;6.892;2023-04-25T14:35:36;6.78;;;1.50;;
53281;SDS011;39167;52.794;6.892;2023-04-25T14:38:02;5.55;;;1.10;;
53281;SDS011;39167;52.794;6.892;2023-04-25T14:40:28;12.13;;;1.80;;
53281;SDS011;39167;52.794;6.892;2023-04-25T14:42:54;7.68;;;1.60;;
53281;SDS011;39167;52.794;6.892;2023-04-25T14:45:20;9.90;;;2.10;;
53281;SDS011;39167;52.794;6.892;2023-04-25T14:47:45;6.70;;;1.73;;
53281;SDS011;39167;52.794;6.892;2023-04-25T14:50:11;6.40;;;1.45;;
53281;SDS011;39167;52.794;6.892;2023-04-25T14:52:37;6.80;;;1.35;;
53281;SDS011;39167;52.794;6.892;2023-04-25T14:55:03;8.88;;;1.70;;
53281;SDS011;39167;52.794;6.892;2023-04-25T14:57:32;4.35;;;1.23;;
53281;SDS011;39167;52.794;6.892;2023-04-25T14:59:58;8.02;;;1.27;;
53281;SDS011;39167;52.794;6.892;2023-04-25T15:02:24;6.13;;;1.88;;
53281;SDS011;39167;52.794;6.892;2023-04-25T15:04:51;7.50;;;1.42;;